createdAt,value
2018-10-03T00:00:37.926Z,13.50
2018-10-03T00:03:05.907Z,13.50
2018-10-03T00:05:33.468Z,13.60
2018-10-03T00:08:01.028Z,13.50
2018-10-03T00:10:29.308Z,13.60
2018-10-03T00:12:56.865Z,13.60
2018-10-03T00:15:24.429Z,13.60
2018-10-03T00:17:52.031Z,13.60
2018-10-03T00:20:20.372Z,13.60
2018-10-03T00:22:47.937Z,13.60
2018-10-03T00:25:15.538Z,13.60
2018-10-03T00:27:43.099Z,13.60
2018-10-03T00:30:11.435Z,13.60
2018-10-03T00:32:39.066Z,13.60
2018-10-03T00:35:06.628Z,13.60
2018-10-03T00:37:34.192Z,13.60
2018-10-03T00:40:02.190Z,13.70
2018-10-03T00:42:29.756Z,13.70
2018-10-03T00:44:57.313Z,13.70
2018-10-03T00:47:24.918Z,13.70
2018-10-03T00:49:52.479Z,13.70
2018-10-03T00:52:20.845Z,13.70
2018-10-03T00:54:48.464Z,13.70
2018-10-03T00:57:16.022Z,13.70
2018-10-03T00:59:43.582Z,13.70
2018-10-03T01:02:11.185Z,13.90
2018-10-03T01:04:38.745Z,13.90
2018-10-03T01:07:06.305Z,13.90
2018-10-03T01:09:33.905Z,13.90
2018-10-03T01:12:01.465Z,14.00
2018-10-03T01:14:29.780Z,14.20
2018-10-03T01:16:57.380Z,14.10
2018-10-03T01:19:24.950Z,14.10
2018-10-03T01:21:52.556Z,14.00
2018-10-03T01:24:20.157Z,13.90
2018-10-03T01:26:47.712Z,13.90
2018-10-03T01:29:15.270Z,13.90
2018-10-03T01:31:42.901Z,14.00
2018-10-03T01:34:10.460Z,14.00
2018-10-03T01:36:38.013Z,14.10
2018-10-03T01:39:05.634Z,14.10
2018-10-03T01:41:33.201Z,14.00
2018-10-03T01:44:01.526Z,14.10
2018-10-03T01:46:29.112Z,14.10
2018-10-03T01:48:56.670Z,14.10
2018-10-03T01:51:24.227Z,14.00
2018-10-03T01:53:51.819Z,14.00
2018-10-03T01:56:19.385Z,14.10
2018-10-03T01:58:46.951Z,14.10
2018-10-03T02:01:14.564Z,14.00
2018-10-03T02:03:42.119Z,14.00
2018-10-03T02:06:09.679Z,14.00
2018-10-03T02:08:37.278Z,14.00
2018-10-03T02:11:04.833Z,13.90
2018-10-03T02:13:32.384Z,13.90
2018-10-03T02:15:59.988Z,13.90
2018-10-03T02:18:27.542Z,13.90
2018-10-03T02:20:55.878Z,14.00
2018-10-03T02:23:23.503Z,14.00
2018-10-03T02:25:51.060Z,14.00
2018-10-03T02:28:18.614Z,14.00
2018-10-03T02:30:46.202Z,13.90
2018-10-03T02:33:13.758Z,13.90
2018-10-03T02:35:41.314Z,13.80
2018-10-03T02:38:08.906Z,13.80
2018-10-03T02:40:36.463Z,13.80
2018-10-03T02:43:04.022Z,13.80
2018-10-03T02:45:31.630Z,13.80
2018-10-03T02:47:59.961Z,13.80
2018-10-03T02:50:27.515Z,13.80
2018-10-03T02:52:55.102Z,13.80
2018-10-03T02:55:22.672Z,13.80
2018-10-03T02:57:50.235Z,13.80
2018-10-03T03:00:17.833Z,13.80
2018-10-03T03:02:46.161Z,13.80
2018-10-03T03:05:13.713Z,13.80
2018-10-03T03:07:42.402Z,13.80
2018-10-03T03:10:09.964Z,13.70
2018-10-03T03:12:37.521Z,13.70
2018-10-03T03:15:05.140Z,13.70
2018-10-03T03:17:32.667Z,13.70
2018-10-03T03:20:00.466Z,13.70
2018-10-03T03:22:28.818Z,13.70
2018-10-03T03:24:56.392Z,13.70
2018-10-03T03:27:23.944Z,13.70
2018-10-03T03:29:51.556Z,13.80
2018-10-03T03:32:19.120Z,13.80
2018-10-03T03:34:46.680Z,13.90
2018-10-03T03:37:14.354Z,13.90
2018-10-03T03:39:41.927Z,13.90
2018-10-03T03:42:09.486Z,13.90
2018-10-03T03:44:37.081Z,13.80
2018-10-03T03:47:04.651Z,13.80
2018-10-03T03:49:32.184Z,13.80
2018-10-03T03:51:59.787Z,13.70
2018-10-03T03:54:28.112Z,13.80
2018-10-03T03:56:55.681Z,13.80
2018-10-03T03:59:23.267Z,13.90
2018-10-03T04:01:50.820Z,13.80
2018-10-03T04:04:18.378Z,13.80
2018-10-03T04:06:45.969Z,13.80
2018-10-03T04:09:14.309Z,13.80
2018-10-03T04:11:42.644Z,13.80
2018-10-03T04:14:10.264Z,13.80
2018-10-03T04:16:37.822Z,13.80
2018-10-03T04:19:05.386Z,13.80
2018-10-03T04:21:33.038Z,13.90
2018-10-03T04:24:00.645Z,14.00
2018-10-03T04:26:28.207Z,13.90
2018-10-03T04:28:55.809Z,13.90
2018-10-03T04:31:23.376Z,13.90
2018-10-03T04:33:50.942Z,14.00
2018-10-03T04:36:19.005Z,14.00
2018-10-03T04:38:46.569Z,14.00
2018-10-03T04:41:14.130Z,14.10
2018-10-03T04:43:41.735Z,14.10
2018-10-03T04:46:10.056Z,13.90
2018-10-03T04:48:37.612Z,13.90
2018-10-03T04:51:05.215Z,13.90
2018-10-03T04:53:32.771Z,13.80
2018-10-03T04:56:00.344Z,13.80
2018-10-03T04:58:27.966Z,13.80
2018-10-03T05:00:55.845Z,13.90
2018-10-03T05:03:23.418Z,13.90
2018-10-03T05:05:51.491Z,13.90
2018-10-03T05:08:19.051Z,13.90
2018-10-03T05:10:46.619Z,13.90
2018-10-03T05:13:14.297Z,14.10
2018-10-03T05:15:41.880Z,14.10
2018-10-03T05:18:09.484Z,14.10
2018-10-03T05:20:37.099Z,14.00
2018-10-03T05:23:05.422Z,13.90
2018-10-03T05:25:32.982Z,13.80
2018-10-03T05:28:01.034Z,13.80
2018-10-03T05:30:28.534Z,13.80
2018-10-03T05:32:56.091Z,13.70
2018-10-03T05:35:23.688Z,13.70
2018-10-03T05:37:51.246Z,13.70
2018-10-03T05:40:18.799Z,13.70
2018-10-03T05:42:46.434Z,13.70
2018-10-03T05:45:14.002Z,13.60
2018-10-03T05:47:41.565Z,13.60
2018-10-03T05:50:09.171Z,13.60
2018-10-03T05:52:37.510Z,13.70
2018-10-03T05:55:05.067Z,13.70
2018-10-03T05:57:34.258Z,13.80
2018-10-03T06:00:01.823Z,13.70
2018-10-03T06:02:29.372Z,13.70
2018-10-03T06:04:56.978Z,13.70
2018-10-03T06:07:24.542Z,13.70
2018-10-03T06:09:52.100Z,13.70
2018-10-03T06:12:21.190Z,13.70
2018-10-03T06:14:48.712Z,13.70
2018-10-03T06:17:16.265Z,13.70
2018-10-03T06:19:43.882Z,13.70
2018-10-03T06:22:12.205Z,13.70
2018-10-03T06:24:40.087Z,13.70
2018-10-03T06:27:08.198Z,13.70
2018-10-03T06:29:35.765Z,13.70
2018-10-03T06:32:04.089Z,13.80
2018-10-03T06:34:32.177Z,13.80
2018-10-03T06:36:59.747Z,13.80
2018-10-03T06:39:27.355Z,13.80
2018-10-03T06:41:55.270Z,13.80
2018-10-03T06:44:22.850Z,14.00
2018-10-03T06:46:50.394Z,14.00
2018-10-03T06:49:18.010Z,14.00
2018-10-03T06:51:46.338Z,14.00
2018-10-03T06:54:13.903Z,13.90
2018-10-03T06:56:41.542Z,14.00
2018-10-03T06:59:09.103Z,14.00
2018-10-03T07:01:36.677Z,14.00
2018-10-03T07:04:05.173Z,14.00
2018-10-03T07:06:32.749Z,14.10
2018-10-03T07:09:00.313Z,14.10
2018-10-03T07:11:28.776Z,14.30
2018-10-03T07:13:56.337Z,14.30
2018-10-03T07:16:23.896Z,14.30
2018-10-03T07:18:51.501Z,14.20
2018-10-03T07:21:19.826Z,14.30
2018-10-03T07:23:47.623Z,14.30
2018-10-03T07:26:15.617Z,14.30
2018-10-03T07:28:43.160Z,14.30
2018-10-03T07:31:10.738Z,14.50
2018-10-03T07:33:39.112Z,14.50
2018-10-03T07:36:07.442Z,14.50
2018-10-03T07:38:35.004Z,14.50
2018-10-03T07:41:02.616Z,14.50
2018-10-03T07:43:30.187Z,14.50
2018-10-03T07:45:58.520Z,14.70
2018-10-03T07:48:26.142Z,14.60
2018-10-03T07:50:53.707Z,14.70
2018-10-03T07:53:21.267Z,14.70
2018-10-03T07:55:48.894Z,14.80
2018-10-03T07:58:16.459Z,14.80
2018-10-03T08:00:44.024Z,14.80
2018-10-03T08:03:12.408Z,14.80
2018-10-03T08:05:40.727Z,14.80
2018-10-03T08:08:08.285Z,14.80
2018-10-03T08:10:35.934Z,14.90
2018-10-03T08:13:03.495Z,14.90
2018-10-03T08:15:31.058Z,14.90
2018-10-03T08:17:59.607Z,14.90
2018-10-03T08:20:27.168Z,14.90
2018-10-03T08:22:54.735Z,14.90
2018-10-03T08:25:23.146Z,15.00
2018-10-03T08:27:50.718Z,14.90
2018-10-03T08:30:18.286Z,15.00
2018-10-03T08:32:46.050Z,15.10
2018-10-03T08:35:14.234Z,15.30
2018-10-03T08:37:41.800Z,15.20
2018-10-03T08:40:10.502Z,15.30
2018-10-03T08:42:38.076Z,15.40
2018-10-03T08:45:05.636Z,15.40
2018-10-03T08:47:33.315Z,15.50
2018-10-03T08:50:00.886Z,15.50
2018-10-03T08:52:28.704Z,15.60
2018-10-03T08:54:56.342Z,15.60
2018-10-03T08:57:23.913Z,15.70
2018-10-03T08:59:51.477Z,15.70
2018-10-03T09:02:20.406Z,15.70
2018-10-03T09:04:47.971Z,15.70
2018-10-03T09:07:15.531Z,15.70
2018-10-03T09:09:43.568Z,15.90
2018-10-03T09:12:11.152Z,15.90
2018-10-03T09:14:40.510Z,15.80
2018-10-03T09:17:08.130Z,15.90
2018-10-03T09:19:35.687Z,15.90
2018-10-03T09:22:03.254Z,16.00
2018-10-03T09:24:30.892Z,16.00
2018-10-03T09:26:58.460Z,16.20
2018-10-03T09:29:26.257Z,16.20
2018-10-03T09:31:53.876Z,16.20
2018-10-03T09:34:21.452Z,16.30
2018-10-03T09:36:49.017Z,16.40
2018-10-03T09:39:16.634Z,16.40
2018-10-03T09:41:44.200Z,16.40
2018-10-03T09:44:11.769Z,16.40
2018-10-03T09:46:39.379Z,16.50
2018-10-03T09:49:06.943Z,16.60
2018-10-03T09:51:34.817Z,16.60
2018-10-03T09:54:03.209Z,16.60
2018-10-03T09:56:30.775Z,16.60
2018-10-03T09:58:59.105Z,16.50
2018-10-03T10:01:26.722Z,16.50
2018-10-03T10:03:54.312Z,16.50
2018-10-03T10:06:22.122Z,16.50
2018-10-03T10:08:49.739Z,16.50
2018-10-03T10:11:17.408Z,16.50
2018-10-03T10:13:44.874Z,16.60
2018-10-03T10:16:12.521Z,16.60
2018-10-03T10:18:40.084Z,16.50
2018-10-03T10:21:07.649Z,16.50
2018-10-03T10:23:35.304Z,16.50
2018-10-03T10:26:02.863Z,16.50
2018-10-03T10:28:30.425Z,16.40
2018-10-03T10:30:58.042Z,16.40
2018-10-03T10:33:25.621Z,16.40
2018-10-03T10:35:53.956Z,16.30
2018-10-03T10:38:21.578Z,16.30
2018-10-03T10:40:49.484Z,16.30
2018-10-03T10:43:17.114Z,16.40
2018-10-03T10:45:44.695Z,16.50
2018-10-03T10:48:12.262Z,16.50
2018-10-03T10:50:39.832Z,16.70
2018-10-03T10:53:08.613Z,16.80
2018-10-03T10:55:36.183Z,16.90
2018-10-03T10:58:03.770Z,16.90
2018-10-03T11:00:31.886Z,16.90
2018-10-03T11:02:59.463Z,17.00
2018-10-03T11:05:27.021Z,17.10
2018-10-03T11:07:54.638Z,17.20
2018-10-03T11:10:22.970Z,17.10
2018-10-03T11:12:50.540Z,17.10
2018-10-03T11:15:18.526Z,17.10
2018-10-03T11:17:46.091Z,17.00
2018-10-03T11:20:13.658Z,16.90
2018-10-03T11:22:42.079Z,16.90
2018-10-03T11:25:09.652Z,16.90
2018-10-03T11:27:37.219Z,17.00
2018-10-03T11:30:04.840Z,17.00
2018-10-03T11:32:33.175Z,17.00
2018-10-03T11:35:00.742Z,16.90
2018-10-03T11:37:28.704Z,16.90
2018-10-03T11:39:56.273Z,16.90
2018-10-03T11:42:23.853Z,16.90
2018-10-03T11:44:52.002Z,16.80
2018-10-03T11:47:19.566Z,16.90
2018-10-03T11:49:47.132Z,17.00
2018-10-03T11:52:15.310Z,17.00
2018-10-03T11:54:42.871Z,16.90
2018-10-03T11:57:10.500Z,16.90
2018-10-03T11:59:38.083Z,17.00
2018-10-03T12:02:05.608Z,17.00
2018-10-03T12:04:33.170Z,17.00
2018-10-03T12:07:01.695Z,17.00
2018-10-03T12:09:29.249Z,17.10
2018-10-03T12:11:56.819Z,17.10
2018-10-03T12:14:24.425Z,17.40
2018-10-03T12:16:51.994Z,17.50
2018-10-03T12:19:20.319Z,17.70
2018-10-03T12:21:47.965Z,17.70
2018-10-03T12:24:15.534Z,17.80
2018-10-03T12:26:43.106Z,17.80
2018-10-03T12:29:11.074Z,17.80
2018-10-03T12:31:38.645Z,17.80
2018-10-03T12:34:06.224Z,17.70
2018-10-03T12:36:34.469Z,17.70
2018-10-03T12:39:02.049Z,17.70
2018-10-03T12:41:29.609Z,17.80
2018-10-03T12:43:57.241Z,17.80
2018-10-03T12:46:24.800Z,17.70
2018-10-03T12:48:52.376Z,17.70
2018-10-03T12:51:20.665Z,17.60
2018-10-03T12:53:48.238Z,17.60
2018-10-03T12:56:15.804Z,17.70
2018-10-03T12:58:43.431Z,17.80
2018-10-03T13:01:11.015Z,17.90
2018-10-03T13:03:38.869Z,17.90
2018-10-03T13:06:06.493Z,17.90
2018-10-03T13:08:34.068Z,17.90
2018-10-03T13:11:01.633Z,17.90
2018-10-03T13:13:30.567Z,17.90
2018-10-03T13:15:58.144Z,17.90
2018-10-03T13:18:25.714Z,17.90
2018-10-03T13:20:54.596Z,17.90
2018-10-03T13:23:22.158Z,17.90
2018-10-03T13:25:49.724Z,17.90
2018-10-03T13:28:18.203Z,18.00
2018-10-03T13:30:45.805Z,18.00
2018-10-03T13:33:13.295Z,18.00
2018-10-03T13:35:40.943Z,18.10
2018-10-03T13:38:08.499Z,18.10
2018-10-03T13:40:36.067Z,18.10
2018-10-03T13:43:04.374Z,18.20
2018-10-03T13:45:31.936Z,18.20
2018-10-03T13:47:59.499Z,18.20
2018-10-03T13:50:27.760Z,18.10
2018-10-03T13:52:55.349Z,18.10
2018-10-03T13:55:22.929Z,18.10
2018-10-03T13:57:52.103Z,18.30
2018-10-03T14:00:19.693Z,18.40
2018-10-03T14:02:47.236Z,18.40
2018-10-03T14:05:15.629Z,18.80
2018-10-03T14:07:43.190Z,18.80
2018-10-03T14:10:10.768Z,18.80
2018-10-03T14:12:38.389Z,18.80
2018-10-03T14:15:05.960Z,18.70
2018-10-03T14:17:33.522Z,18.70
2018-10-03T14:20:01.139Z,18.90
2018-10-03T14:22:28.719Z,18.90
2018-10-03T14:24:56.288Z,18.90
2018-10-03T14:27:23.958Z,18.80
2018-10-03T14:29:51.522Z,18.80
2018-10-03T14:32:20.021Z,18.80
2018-10-03T14:34:48.403Z,19.10
2018-10-03T14:37:15.957Z,19.00
2018-10-03T14:39:43.543Z,19.10
2018-10-03T14:42:11.183Z,19.10
2018-10-03T14:44:38.742Z,19.10
2018-10-03T14:47:06.303Z,19.10
2018-10-03T14:49:33.951Z,19.00
2018-10-03T14:52:01.555Z,19.00
2018-10-03T14:54:29.083Z,19.00
2018-10-03T14:56:56.710Z,19.00
2018-10-03T14:59:24.273Z,18.90
2018-10-03T15:01:51.841Z,18.90
2018-10-03T15:04:19.491Z,18.90
2018-10-03T15:06:47.069Z,18.90
2018-10-03T15:09:14.624Z,18.90
2018-10-03T15:11:42.250Z,18.90
2018-10-03T15:14:09.808Z,18.90
2018-10-03T15:16:37.401Z,18.90
2018-10-03T15:19:05.028Z,18.90
2018-10-03T15:21:32.607Z,18.90
2018-10-03T15:24:00.192Z,19.00
2018-10-03T15:26:28.310Z,19.00
2018-10-03T15:28:58.564Z,19.10
2018-10-03T15:31:26.125Z,19.10
2018-10-03T15:33:53.774Z,19.10
2018-10-03T15:36:21.337Z,19.10
2018-10-03T15:38:48.910Z,19.10
2018-10-03T15:41:16.521Z,19.20
2018-10-03T15:43:44.103Z,19.30
2018-10-03T15:46:11.677Z,19.30
2018-10-03T15:48:40.083Z,19.30
2018-10-03T15:51:07.644Z,19.30
2018-10-03T15:53:35.228Z,19.30
2018-10-03T15:56:03.427Z,19.40
2018-10-03T15:58:31.121Z,19.40
2018-10-03T16:00:58.700Z,19.40
2018-10-03T16:03:26.813Z,19.50
2018-10-03T16:05:54.378Z,19.40
2018-10-03T16:08:21.948Z,19.40
2018-10-03T16:10:49.595Z,19.40
2018-10-03T16:13:17.166Z,19.30
2018-10-03T16:15:44.722Z,19.30
2018-10-03T16:18:12.374Z,19.30
2018-10-03T16:20:39.910Z,19.20
2018-10-03T16:23:07.480Z,19.10
2018-10-03T16:25:35.788Z,18.90
2018-10-03T16:28:03.354Z,18.70
2018-10-03T16:30:30.929Z,18.50
2018-10-03T16:32:59.146Z,18.40
2018-10-03T16:35:26.721Z,18.20
2018-10-03T16:37:54.291Z,18.00
2018-10-03T16:40:21.943Z,17.90
2018-10-03T16:42:49.520Z,17.80
2018-10-03T16:45:17.088Z,17.60
2018-10-03T16:47:45.068Z,17.50
2018-10-03T16:50:12.629Z,17.40
2018-10-03T16:52:40.192Z,17.30
2018-10-03T16:55:07.814Z,17.20
2018-10-03T16:57:35.379Z,17.20
2018-10-03T17:00:02.976Z,17.10
2018-10-03T17:02:30.602Z,17.00
2018-10-03T17:04:58.177Z,16.90
2018-10-03T17:07:25.744Z,16.90
2018-10-03T17:09:53.382Z,16.80
2018-10-03T17:12:20.946Z,16.70
2018-10-03T17:14:48.512Z,16.60
2018-10-03T17:17:16.132Z,16.50
2018-10-03T17:19:43.789Z,16.40
2018-10-03T17:22:11.354Z,16.30
2018-10-03T17:24:38.997Z,16.20
2018-10-03T17:27:06.561Z,16.10
2018-10-03T17:29:34.126Z,15.90
2018-10-03T17:32:01.997Z,15.80
2018-10-03T17:34:29.422Z,15.70
2018-10-03T17:36:56.990Z,15.60
2018-10-03T17:39:24.601Z,15.50
2018-10-03T17:41:52.929Z,15.40
2018-10-03T17:44:20.490Z,15.40
2018-10-03T17:46:48.104Z,15.30
2018-10-03T17:49:16.451Z,15.10
2018-10-03T17:51:44.022Z,15.10
2018-10-03T17:54:11.669Z,15.00
2018-10-03T17:56:39.246Z,15.00
2018-10-03T17:59:06.870Z,14.90
2018-10-03T18:01:34.452Z,14.90
2018-10-03T18:04:02.016Z,14.80
2018-10-03T18:06:29.580Z,14.60
2018-10-03T18:08:57.442Z,14.50
2018-10-03T18:11:25.008Z,14.40
2018-10-03T18:13:52.639Z,14.40
2018-10-03T18:16:20.240Z,14.30
2018-10-03T18:18:47.809Z,14.20
2018-10-03T18:21:15.378Z,14.10
2018-10-03T18:23:43.794Z,14.00
2018-10-03T18:26:11.357Z,14.00
2018-10-03T18:28:38.922Z,13.90
2018-10-03T18:31:06.516Z,13.80
2018-10-03T18:33:34.084Z,13.70
2018-10-03T18:36:01.705Z,13.60
2018-10-03T18:38:29.267Z,13.40
2018-10-03T18:40:56.831Z,13.30
2018-10-03T18:43:24.485Z,13.20
2018-10-03T18:45:52.062Z,13.10
2018-10-03T18:48:19.700Z,13.10
2018-10-03T18:50:47.260Z,13.00
2018-10-03T18:53:14.822Z,12.90
2018-10-03T18:55:42.387Z,12.80
2018-10-03T18:58:10.082Z,12.80
2018-10-03T19:00:38.394Z,12.70
2018-10-03T19:03:05.964Z,12.70
2018-10-03T19:05:34.441Z,12.70
2018-10-03T19:08:01.954Z,12.70
2018-10-03T19:10:29.514Z,12.60
2018-10-03T19:12:57.131Z,12.50
2018-10-03T19:15:24.699Z,12.40
2018-10-03T19:17:52.263Z,12.30
2018-10-03T19:20:21.007Z,12.20
2018-10-03T19:22:48.568Z,12.20
2018-10-03T19:25:16.126Z,12.10
2018-10-03T19:27:43.728Z,12.00
2018-10-03T19:30:11.298Z,12.00
2018-10-03T19:32:39.636Z,11.90
2018-10-03T19:35:07.299Z,11.90
2018-10-03T19:37:34.868Z,11.80
2018-10-03T19:40:02.446Z,11.80
2018-10-03T19:42:30.072Z,11.70
2018-10-03T19:44:57.640Z,11.70
2018-10-03T19:47:25.206Z,11.60
2018-10-03T19:49:53.792Z,11.60
2018-10-03T19:52:21.362Z,11.50
2018-10-03T19:54:48.931Z,11.60
2018-10-03T19:57:17.425Z,11.70
2018-10-03T19:59:44.983Z,11.90
2018-10-03T20:02:12.543Z,11.80
2018-10-03T20:04:40.545Z,11.70
2018-10-03T20:07:08.078Z,11.60
2018-10-03T20:09:35.635Z,11.50
2018-10-03T20:12:03.260Z,11.30
2018-10-03T20:14:30.875Z,11.30
2018-10-03T20:16:58.407Z,11.20
2018-10-03T20:19:26.359Z,11.10
2018-10-03T20:21:53.928Z,11.20
2018-10-03T20:24:21.927Z,11.30
2018-10-03T20:26:49.484Z,11.20
2018-10-03T20:29:17.075Z,11.10
2018-10-03T20:31:44.674Z,11.00
2018-10-03T20:34:12.286Z,10.90
2018-10-03T20:36:40.110Z,10.80
2018-10-03T20:39:07.677Z,10.80
2018-10-03T20:41:35.260Z,10.70
2018-10-03T20:44:02.877Z,10.60
2018-10-03T20:46:30.441Z,10.50
2018-10-03T20:48:58.000Z,10.50
2018-10-03T20:51:26.095Z,10.40
2018-10-03T20:53:53.660Z,10.40
2018-10-03T20:56:21.220Z,10.30
2018-10-03T20:58:49.958Z,10.20
2018-10-03T21:01:16.382Z,10.20
2018-10-03T21:03:44.752Z,10.10
2018-10-03T21:06:13.097Z,10.00
2018-10-03T21:08:40.713Z,10.00
2018-10-03T21:11:08.322Z,10.00
2018-10-03T21:13:35.889Z,10.00
2018-10-03T21:16:03.453Z,9.90
2018-10-03T21:18:31.123Z,9.90
2018-10-03T21:20:59.729Z,9.90
2018-10-03T21:23:27.293Z,9.90
2018-10-03T21:25:55.641Z,9.80
2018-10-03T21:28:23.599Z,9.80
2018-10-03T21:30:51.573Z,9.70
2018-10-03T21:33:19.129Z,9.80
2018-10-03T21:35:46.690Z,9.90
2018-10-03T21:38:16.105Z,9.80
2018-10-03T21:40:43.662Z,9.80
2018-10-03T21:43:11.225Z,9.70
2018-10-03T21:45:38.816Z,9.70
2018-10-03T21:48:06.368Z,9.60
2018-10-03T21:50:33.973Z,9.60
2018-10-03T21:53:01.542Z,9.60
2018-10-03T21:55:29.104Z,9.50
2018-10-03T21:57:56.711Z,9.50
2018-10-03T22:00:24.266Z,9.40
2018-10-03T22:02:51.831Z,9.30
2018-10-03T22:05:19.420Z,9.30
2018-10-03T22:07:47.753Z,9.30
2018-10-03T22:10:15.393Z,9.30
2018-10-03T22:12:42.951Z,9.30
2018-10-03T22:15:10.505Z,9.30
2018-10-03T22:17:38.109Z,9.20
2018-10-03T22:20:05.668Z,9.10
2018-10-03T22:22:33.295Z,9.10
2018-10-03T22:25:00.826Z,9.00
2018-10-03T22:27:28.385Z,9.00
2018-10-03T22:29:56.719Z,9.10
2018-10-03T22:32:24.690Z,9.10
2018-10-03T22:34:52.256Z,9.10
2018-10-03T22:37:19.815Z,9.10
2018-10-03T22:39:47.407Z,9.20
2018-10-03T22:42:14.963Z,9.20
2018-10-03T22:44:43.004Z,9.10
2018-10-03T22:47:10.874Z,9.10
2018-10-03T22:49:38.456Z,9.00
2018-10-03T22:52:06.040Z,9.00
2018-10-03T22:54:33.602Z,8.90
2018-10-03T22:57:02.418Z,8.80
2018-10-03T22:59:29.979Z,8.80
2018-10-03T23:01:57.543Z,8.70
2018-10-03T23:04:25.137Z,8.70
2018-10-03T23:06:52.698Z,8.70
2018-10-03T23:09:21.182Z,8.60
2018-10-03T23:11:48.753Z,8.60
2018-10-03T23:14:16.309Z,8.50
2018-10-03T23:16:43.905Z,8.50
2018-10-03T23:19:12.234Z,8.70
2018-10-03T23:21:39.829Z,8.70
2018-10-03T23:24:18.168Z,8.70
2018-10-03T23:26:46.488Z,8.60
2018-10-03T23:29:14.470Z,8.60
2018-10-03T23:31:42.046Z,8.50
2018-10-03T23:34:09.603Z,8.50
2018-10-03T23:36:37.201Z,8.40
2018-10-03T23:39:05.523Z,8.40
2018-10-03T23:41:33.118Z,8.40
2018-10-03T23:44:00.686Z,8.40
2018-10-03T23:46:28.264Z,8.40
2018-10-03T23:48:55.882Z,8.40
2018-10-03T23:51:23.458Z,8.40
2018-10-03T23:53:51.036Z,8.30
2018-10-03T23:56:18.627Z,8.30
2018-10-03T23:58:46.181Z,8.20
